sensor_id;sensor_type;location;lat;lon;timestamp;pressure;altitude;pressure_sealevel;temperature;humidity
43147;BME280;28752;48.266;7.402;2022-12-10T00:00:53;98248.56;;;1.78;87.51
43147;BME280;28752;48.266;7.402;2022-12-10T00:03:19;98248.34;;;1.70;87.70
43147;BME280;28752;48.266;7.402;2022-12-10T00:05:44;98243.94;;;1.71;88.07
43147;BME280;28752;48.266;7.402;2022-12-10T00:08:10;98234.69;;;1.55;89.05
43147;BME280;28752;48.266;7.402;2022-12-10T00:10:39;98239.19;;;1.65;88.86
43147;BME280;28752;48.266;7.402;2022-12-10T00:13:04;98243.00;;;1.60;89.83
43147;BME280;28752;48.266;7.402;2022-12-10T00:15:30;98245.72;;;1.59;90.65
43147;BME280;28752;48.266;7.402;2022-12-10T00:17:55;98238.97;;;1.56;91.42
43147;BME280;28752;48.266;7.402;2022-12-10T00:20:20;98245.00;;;1.46;91.78
43147;BME280;28752;48.266;7.402;2022-12-10T00:22:46;98219.03;;;1.44;91.79
43147;BME280;28752;48.266;7.402;2022-12-10T00:25:11;98231.59;;;1.50;91.11
43147;BME280;28752;48.266;7.402;2022-12-10T00:27:36;98231.47;;;1.40;91.72
43147;BME280;28752;48.266;7.402;2022-12-10T00:30:02;98217.63;;;1.40;91.86
43147;BME280;28752;48.266;7.402;2022-12-10T00:32:28;98235.75;;;1.41;91.74
43147;BME280;28752;48.266;7.402;2022-12-10T00:34:54;98226.63;;;1.36;91.96
43147;BME280;28752;48.266;7.402;2022-12-10T00:37:19;98228.53;;;1.34;91.48
43147;BME280;28752;48.266;7.402;2022-12-10T00:39:45;98232.91;;;1.45;90.85
43147;BME280;28752;48.266;7.402;2022-12-10T00:42:10;98230.41;;;1.54;90.59
43147;BME280;28752;48.266;7.402;2022-12-10T00:44:35;98229.00;;;1.39;91.10
43147;BME280;28752;48.266;7.402;2022-12-10T00:47:01;98237.41;;;1.42;91.26
43147;BME280;28752;48.266;7.402;2022-12-10T00:49:26;98232.88;;;1.33;91.82
43147;BME280;28752;48.266;7.402;2022-12-10T00:51:51;98242.72;;;1.41;91.16
43147;BME280;28752;48.266;7.402;2022-12-10T00:54:17;98242.97;;;1.38;91.28
43147;BME280;28752;48.266;7.402;2022-12-10T00:56:42;98244.53;;;1.52;90.60
43147;BME280;28752;48.266;7.402;2022-12-10T00:59:08;98236.94;;;1.49;90.22
43147;BME280;28752;48.266;7.402;2022-12-10T01:01:38;98240.38;;;1.49;90.24
43147;BME280;28752;48.266;7.402;2022-12-10T01:04:15;98248.31;;;1.59;89.73
43147;BME280;28752;48.266;7.402;2022-12-10T01:06:44;98254.50;;;1.58;89.85
43147;BME280;28752;48.266;7.402;2022-12-10T01:09:12;98249.06;;;1.61;89.56
43147;BME280;28752;48.266;7.402;2022-12-10T01:11:40;98260.19;;;1.63;89.68
43147;BME280;28752;48.266;7.402;2022-12-10T01:14:08;98261.50;;;1.57;89.60
43147;BME280;28752;48.266;7.402;2022-12-10T01:16:34;98258.66;;;1.60;89.48
43147;BME280;28752;48.266;7.402;2022-12-10T01:19:00;98264.84;;;1.59;89.13
43147;BME280;28752;48.266;7.402;2022-12-10T01:21:27;98266.50;;;1.72;88.88
43147;BME280;28752;48.266;7.402;2022-12-10T01:23:53;98264.34;;;1.66;88.92
43147;BME280;28752;48.266;7.402;2022-12-10T01:26:25;98260.31;;;1.62;89.03
43147;BME280;28752;48.266;7.402;2022-12-10T01:28:51;98261.84;;;1.53;89.20
43147;BME280;28752;48.266;7.402;2022-12-10T01:31:19;98265.38;;;1.52;89.79
43147;BME280;28752;48.266;7.402;2022-12-10T01:33:46;98276.78;;;1.62;89.27
43147;BME280;28752;48.266;7.402;2022-12-10T01:36:14;98277.38;;;1.54;89.53
43147;BME280;28752;48.266;7.402;2022-12-10T01:38:40;98281.66;;;1.67;88.96
43147;BME280;28752;48.266;7.402;2022-12-10T01:41:07;98283.69;;;1.63;89.60
43147;BME280;28752;48.266;7.402;2022-12-10T01:43:57;98289.72;;;1.64;89.50
43147;BME280;28752;48.266;7.402;2022-12-10T01:46:26;98285.94;;;1.68;89.06
43147;BME280;28752;48.266;7.402;2022-12-10T01:48:52;98280.47;;;1.59;88.99
43147;BME280;28752;48.266;7.402;2022-12-10T01:51:18;98284.28;;;1.55;89.40
43147;BME280;28752;48.266;7.402;2022-12-10T01:53:44;98283.91;;;1.60;89.56
43147;BME280;28752;48.266;7.402;2022-12-10T01:56:11;98289.47;;;1.67;89.13
43147;BME280;28752;48.266;7.402;2022-12-10T01:58:37;98291.03;;;1.69;88.88
43147;BME280;28752;48.266;7.402;2022-12-10T02:09:11;98319.16;;;1.66;89.65
43147;BME280;28752;48.266;7.402;2022-12-10T02:12:17;98327.22;;;1.63;90.12
43147;BME280;28752;48.266;7.402;2022-12-10T02:15:01;98300.28;;;1.62;89.88
43147;BME280;28752;48.266;7.402;2022-12-10T02:17:34;98306.00;;;1.78;89.31
43147;BME280;28752;48.266;7.402;2022-12-10T02:22:50;98296.47;;;1.44;91.01
43147;BME280;28752;48.266;7.402;2022-12-10T02:25:22;98309.97;;;1.49;91.13
43147;BME280;28752;48.266;7.402;2022-12-10T02:28:02;98306.69;;;1.58;90.86
43147;BME280;28752;48.266;7.402;2022-12-10T02:30:31;98307.50;;;1.70;90.50
43147;BME280;28752;48.266;7.402;2022-12-10T02:32:58;98310.00;;;1.60;90.99
43147;BME280;28752;48.266;7.402;2022-12-10T02:35:27;98307.41;;;1.71;90.92
43147;BME280;28752;48.266;7.402;2022-12-10T02:37:59;98303.50;;;1.66;90.77
43147;BME280;28752;48.266;7.402;2022-12-10T02:40:31;98295.28;;;1.59;91.10
43147;BME280;28752;48.266;7.402;2022-12-10T02:42:57;98297.31;;;1.55;91.31
43147;BME280;28752;48.266;7.402;2022-12-10T02:45:25;98296.47;;;1.55;91.45
43147;BME280;28752;48.266;7.402;2022-12-10T02:47:55;98296.81;;;1.50;91.62
43147;BME280;28752;48.266;7.402;2022-12-10T02:50:22;98301.09;;;1.51;91.59
43147;BME280;28752;48.266;7.402;2022-12-10T02:52:48;98295.06;;;1.62;91.31
43147;BME280;28752;48.266;7.402;2022-12-10T02:55:14;98293.84;;;1.55;91.11
43147;BME280;28752;48.266;7.402;2022-12-10T02:58:06;98295.28;;;1.59;91.22
43147;BME280;28752;48.266;7.402;2022-12-10T03:00:40;98288.44;;;1.58;91.09
43147;BME280;28752;48.266;7.402;2022-12-10T03:03:23;98291.38;;;1.53;91.14
43147;BME280;28752;48.266;7.402;2022-12-10T03:06:02;98298.47;;;1.51;91.11
43147;BME280;28752;48.266;7.402;2022-12-10T03:08:45;98287.81;;;1.43;91.77
43147;BME280;28752;48.266;7.402;2022-12-10T03:11:16;98295.53;;;1.45;91.90
43147;BME280;28752;48.266;7.402;2022-12-10T03:13:50;98290.53;;;1.41;92.10
43147;BME280;28752;48.266;7.402;2022-12-10T03:16:19;98283.53;;;1.42;92.16
43147;BME280;28752;48.266;7.402;2022-12-10T03:18:48;98297.31;;;1.55;91.67
43147;BME280;28752;48.266;7.402;2022-12-10T03:21:15;98295.88;;;1.51;91.60
43147;BME280;28752;48.266;7.402;2022-12-10T03:23:42;98294.78;;;1.42;91.96
43147;BME280;28752;48.266;7.402;2022-12-10T03:26:09;98285.31;;;1.41;92.05
43147;BME280;28752;48.266;7.402;2022-12-10T03:28:39;98299.88;;;1.44;92.01
43147;BME280;28752;48.266;7.402;2022-12-10T03:31:08;98294.91;;;1.41;92.17
43147;BME280;28752;48.266;7.402;2022-12-10T03:33:35;98288.97;;;1.39;92.77
43147;BME280;28752;48.266;7.402;2022-12-10T03:36:03;98286.25;;;1.40;92.37
43147;BME280;28752;48.266;7.402;2022-12-10T03:38:29;98293.16;;;1.53;91.88
43147;BME280;28752;48.266;7.402;2022-12-10T03:40:54;98291.13;;;1.45;92.05
43147;BME280;28752;48.266;7.402;2022-12-10T03:43:21;98297.53;;;1.52;91.77
43147;BME280;28752;48.266;7.402;2022-12-10T03:45:47;98287.13;;;1.52;92.17
43147;BME280;28752;48.266;7.402;2022-12-10T03:48:12;98303.22;;;1.46;92.24
43147;BME280;28752;48.266;7.402;2022-12-10T03:50:38;98293.28;;;1.63;91.61
43147;BME280;28752;48.266;7.402;2022-12-10T03:53:03;98294.59;;;1.68;91.20
43147;BME280;28752;48.266;7.402;2022-12-10T03:55:28;98290.31;;;1.45;91.82
43147;BME280;28752;48.266;7.402;2022-12-10T03:57:54;98291.25;;;1.55;91.81
43147;BME280;28752;48.266;7.402;2022-12-10T04:00:19;98296.38;;;1.56;91.84
43147;BME280;28752;48.266;7.402;2022-12-10T04:02:44;98293.66;;;1.58;91.83
43147;BME280;28752;48.266;7.402;2022-12-10T04:05:10;98291.03;;;1.58;91.86
43147;BME280;28752;48.266;7.402;2022-12-10T04:07:36;98288.63;;;1.55;91.44
43147;BME280;28752;48.266;7.402;2022-12-10T04:10:02;98292.69;;;1.59;91.10
43147;BME280;28752;48.266;7.402;2022-12-10T04:12:28;98292.34;;;1.64;91.38
43147;BME280;28752;48.266;7.402;2022-12-10T04:14:53;98289.59;;;1.54;91.69
43147;BME280;28752;48.266;7.402;2022-12-10T04:17:37;98290.66;;;1.51;91.78
43147;BME280;28752;48.266;7.402;2022-12-10T04:20:03;98286.63;;;1.70;90.82
43147;BME280;28752;48.266;7.402;2022-12-10T04:22:28;98281.31;;;1.71;90.18
43147;BME280;28752;48.266;7.402;2022-12-10T04:25:12;98275.25;;;1.48;91.06
43147;BME280;28752;48.266;7.402;2022-12-10T04:27:57;98287.97;;;1.64;90.94
43147;BME280;28752;48.266;7.402;2022-12-10T04:30:22;98283.09;;;1.59;90.64
43147;BME280;28752;48.266;7.402;2022-12-10T04:32:48;98288.06;;;1.51;90.96
43147;BME280;28752;48.266;7.402;2022-12-10T04:35:13;98287.97;;;1.64;90.71
43147;BME280;28752;48.266;7.402;2022-12-10T04:37:39;98294.81;;;1.65;90.97
43147;BME280;28752;48.266;7.402;2022-12-10T04:40:05;98290.34;;;1.67;90.58
43147;BME280;28752;48.266;7.402;2022-12-10T04:42:30;98289.97;;;1.60;90.57
43147;BME280;28752;48.266;7.402;2022-12-10T04:44:55;98296.38;;;1.56;90.76
43147;BME280;28752;48.266;7.402;2022-12-10T04:47:21;98295.56;;;1.67;90.21
43147;BME280;28752;48.266;7.402;2022-12-10T04:49:46;98294.81;;;1.65;90.15
43147;BME280;28752;48.266;7.402;2022-12-10T04:52:13;98303.25;;;1.69;90.11
43147;BME280;28752;48.266;7.402;2022-12-10T04:54:40;98294.00;;;1.65;89.82
43147;BME280;28752;48.266;7.402;2022-12-10T04:57:06;98292.09;;;1.67;89.92
43147;BME280;28752;48.266;7.402;2022-12-10T04:59:31;98297.91;;;1.59;90.10
43147;BME280;28752;48.266;7.402;2022-12-10T05:01:57;98293.53;;;1.59;90.01
43147;BME280;28752;48.266;7.402;2022-12-10T05:04:22;98307.16;;;1.63;90.02
43147;BME280;28752;48.266;7.402;2022-12-10T05:06:48;98295.16;;;1.60;89.83
43147;BME280;28752;48.266;7.402;2022-12-10T05:09:15;98298.63;;;1.72;89.41
43147;BME280;28752;48.266;7.402;2022-12-10T05:11:42;98307.28;;;1.73;89.50
43147;BME280;28752;48.266;7.402;2022-12-10T05:14:11;98306.69;;;1.69;89.08
43147;BME280;28752;48.266;7.402;2022-12-10T05:16:37;98308.72;;;1.66;88.95
43147;BME280;28752;48.266;7.402;2022-12-10T05:19:02;98313.00;;;1.78;88.80
43147;BME280;28752;48.266;7.402;2022-12-10T05:21:28;98314.28;;;1.72;88.61
43147;BME280;28752;48.266;7.402;2022-12-10T05:24:15;98313.94;;;1.66;88.91
43147;BME280;28752;48.266;7.402;2022-12-10T05:26:41;98314.63;;;1.56;89.28
43147;BME280;28752;48.266;7.402;2022-12-10T05:29:07;98322.94;;;1.62;89.74
43147;BME280;28752;48.266;7.402;2022-12-10T05:31:32;98326.84;;;1.56;89.74
43147;BME280;28752;48.266;7.402;2022-12-10T05:33:58;98332.16;;;1.54;90.15
43147;BME280;28752;48.266;7.402;2022-12-10T05:36:26;98331.47;;;1.52;91.02
43147;BME280;28752;48.266;7.402;2022-12-10T05:38:53;98332.78;;;1.58;90.32
43147;BME280;28752;48.266;7.402;2022-12-10T05:41:27;98332.91;;;1.56;90.65
43147;BME280;28752;48.266;7.402;2022-12-10T05:43:54;98333.16;;;1.65;90.41
43147;BME280;28752;48.266;7.402;2022-12-10T05:46:23;98339.75;;;1.57;90.67
43147;BME280;28752;48.266;7.402;2022-12-10T05:48:49;98349.03;;;1.62;90.42
43147;BME280;28752;48.266;7.402;2022-12-10T05:51:18;98341.66;;;1.67;89.73
43147;BME280;28752;48.266;7.402;2022-12-10T05:53:44;98352.56;;;1.60;90.08
43147;BME280;28752;48.266;7.402;2022-12-10T05:56:12;98360.19;;;1.64;89.89
43147;BME280;28752;48.266;7.402;2022-12-10T05:58:38;98355.53;;;1.56;90.16
43147;BME280;28752;48.266;7.402;2022-12-10T06:01:08;98355.53;;;1.56;90.18
43147;BME280;28752;48.266;7.402;2022-12-10T06:03:33;98359.34;;;1.63;89.98
43147;BME280;28752;48.266;7.402;2022-12-10T06:05:59;98354.47;;;1.58;89.71
43147;BME280;28752;48.266;7.402;2022-12-10T06:08:24;98365.84;;;1.57;89.61
43147;BME280;28752;48.266;7.402;2022-12-10T06:10:49;98363.47;;;1.54;89.65
43147;BME280;28752;48.266;7.402;2022-12-10T06:13:15;98360.88;;;1.54;89.61
43147;BME280;28752;48.266;7.402;2022-12-10T06:15:41;98372.75;;;1.58;89.35
43147;BME280;28752;48.266;7.402;2022-12-10T06:18:07;98378.06;;;1.57;89.26
43147;BME280;28752;48.266;7.402;2022-12-10T06:20:33;98377.47;;;1.53;89.28
43147;BME280;28752;48.266;7.402;2022-12-10T06:22:58;98378.31;;;1.54;89.85
43147;BME280;28752;48.266;7.402;2022-12-10T06:25:24;98374.03;;;1.53;90.15
43147;BME280;28752;48.266;7.402;2022-12-10T06:27:49;98384.75;;;1.61;89.99
43147;BME280;28752;48.266;7.402;2022-12-10T06:30:14;98366.78;;;1.45;89.44
43147;BME280;28752;48.266;7.402;2022-12-10T06:32:40;98385.78;;;1.58;89.36
43147;BME280;28752;48.266;7.402;2022-12-10T06:35:08;98383.19;;;1.58;88.61
43147;BME280;28752;48.266;7.402;2022-12-10T06:37:33;98394.22;;;1.62;88.59
43147;BME280;28752;48.266;7.402;2022-12-10T06:39:59;98386.63;;;1.59;87.88
43147;BME280;28752;48.266;7.402;2022-12-10T06:42:24;98391.50;;;1.64;87.57
43147;BME280;28752;48.266;7.402;2022-12-10T06:44:49;98410.31;;;1.56;88.51
43147;BME280;28752;48.266;7.402;2022-12-10T06:47:15;98399.53;;;1.60;89.07
43147;BME280;28752;48.266;7.402;2022-12-10T06:49:40;98410.72;;;1.63;88.35
43147;BME280;28752;48.266;7.402;2022-12-10T06:52:06;98410.59;;;1.64;87.72
43147;BME280;28752;48.266;7.402;2022-12-10T06:54:31;98414.75;;;1.67;88.08
43147;BME280;28752;48.266;7.402;2022-12-10T06:56:57;98415.72;;;1.66;87.73
43147;BME280;28752;48.266;7.402;2022-12-10T06:59:22;98421.41;;;1.71;87.25
43147;BME280;28752;48.266;7.402;2022-12-10T07:01:48;98425.28;;;1.65;87.46
43147;BME280;28752;48.266;7.402;2022-12-10T07:04:13;98413.28;;;1.51;88.25
43147;BME280;28752;48.266;7.402;2022-12-10T07:06:39;98423.06;;;1.72;88.21
43147;BME280;28752;48.266;7.402;2022-12-10T07:09:04;98431.59;;;1.63;89.06
43147;BME280;28752;48.266;7.402;2022-12-10T07:11:30;98430.84;;;1.60;89.53
43147;BME280;28752;48.266;7.402;2022-12-10T07:13:57;98419.19;;;1.53;90.37
43147;BME280;28752;48.266;7.402;2022-12-10T07:16:27;98434.66;;;1.56;90.93
43147;BME280;28752;48.266;7.402;2022-12-10T07:18:55;98439.25;;;1.53;90.85
43147;BME280;28752;48.266;7.402;2022-12-10T07:23:47;98417.44;;;1.54;91.25
43147;BME280;28752;48.266;7.402;2022-12-10T07:26:12;98441.91;;;1.64;90.95
43147;BME280;28752;48.266;7.402;2022-12-10T07:28:38;98432.06;;;1.56;91.16
43147;BME280;28752;48.266;7.402;2022-12-10T07:31:05;98444.41;;;1.66;91.37
43147;BME280;28752;48.266;7.402;2022-12-10T07:33:31;98435.38;;;1.58;91.33
43147;BME280;28752;48.266;7.402;2022-12-10T07:35:58;98450.91;;;1.60;91.50
43147;BME280;28752;48.266;7.402;2022-12-10T07:38:24;98429.22;;;1.59;90.98
43147;BME280;28752;48.266;7.402;2022-12-10T07:40:50;98449.88;;;1.63;90.58
43147;BME280;28752;48.266;7.402;2022-12-10T07:43:16;98450.22;;;1.69;89.08
43147;BME280;28752;48.266;7.402;2022-12-10T07:45:41;98458.19;;;1.79;88.09
43147;BME280;28752;48.266;7.402;2022-12-10T07:48:07;98460.22;;;1.75;88.55
43147;BME280;28752;48.266;7.402;2022-12-10T07:50:32;98450.94;;;1.71;88.62
43147;BME280;28752;48.266;7.402;2022-12-10T07:52:58;98428.69;;;1.54;88.85
43147;BME280;28752;48.266;7.402;2022-12-10T07:55:23;98455.81;;;1.76;88.33
43147;BME280;28752;48.266;7.402;2022-12-10T07:57:49;98423.78;;;1.63;88.33
43147;BME280;28752;48.266;7.402;2022-12-10T08:00:14;98457.72;;;1.74;88.37
43147;BME280;28752;48.266;7.402;2022-12-10T08:02:40;98464.38;;;1.78;87.31
43147;BME280;28752;48.266;7.402;2022-12-10T08:05:05;98465.88;;;1.69;87.69
43147;BME280;28752;48.266;7.402;2022-12-10T08:07:31;98450.34;;;1.68;87.55
43147;BME280;28752;48.266;7.402;2022-12-10T08:09:57;98479.69;;;1.83;86.67
43147;BME280;28752;48.266;7.402;2022-12-10T08:12:22;98465.66;;;1.72;87.08
43147;BME280;28752;48.266;7.402;2022-12-10T08:14:47;98452.06;;;1.56;87.30
43147;BME280;28752;48.266;7.402;2022-12-10T08:17:13;98481.31;;;1.72;87.42
43147;BME280;28752;48.266;7.402;2022-12-10T08:19:38;98491.31;;;1.78;87.48
43147;BME280;28752;48.266;7.402;2022-12-10T08:22:04;98460.00;;;1.54;87.23
43147;BME280;28752;48.266;7.402;2022-12-10T08:24:29;98485.59;;;1.73;87.46
43147;BME280;28752;48.266;7.402;2022-12-10T08:26:54;98494.63;;;1.81;87.06
43147;BME280;28752;48.266;7.402;2022-12-10T08:29:20;98491.06;;;1.82;86.95
43147;BME280;28752;48.266;7.402;2022-12-10T08:31:45;98488.59;;;1.80;86.83
43147;BME280;28752;48.266;7.402;2022-12-10T08:34:16;98489.50;;;1.79;87.19
43147;BME280;28752;48.266;7.402;2022-12-10T08:36:43;98476.09;;;1.72;87.45
43147;BME280;28752;48.266;7.402;2022-12-10T08:39:08;98487.66;;;1.81;87.27
43147;BME280;28752;48.266;7.402;2022-12-10T08:41:35;98472.38;;;1.64;87.99
43147;BME280;28752;48.266;7.402;2022-12-10T08:44:01;98486.69;;;1.82;87.12
43147;BME280;28752;48.266;7.402;2022-12-10T08:46:27;98496.06;;;1.85;87.76
43147;BME280;28752;48.266;7.402;2022-12-10T08:48:54;98497.13;;;1.82;87.67
43147;BME280;28752;48.266;7.402;2022-12-10T08:51:19;98504.06;;;1.94;87.25
43147;BME280;28752;48.266;7.402;2022-12-10T08:53:45;98506.28;;;1.88;87.52
43147;BME280;28752;48.266;7.402;2022-12-10T08:56:11;98503.34;;;1.92;87.41
43147;BME280;28752;48.266;7.402;2022-12-10T08:58:37;98512.84;;;1.93;87.15
43147;BME280;28752;48.266;7.402;2022-12-10T09:01:13;98500.69;;;1.81;86.97
43147;BME280;28752;48.266;7.402;2022-12-10T09:03:39;98496.63;;;1.77;87.68
43147;BME280;28752;48.266;7.402;2022-12-10T09:06:06;98498.75;;;1.72;87.93
43147;BME280;28752;48.266;7.402;2022-12-10T09:08:32;98518.63;;;1.86;88.44
43147;BME280;28752;48.266;7.402;2022-12-10T09:10:58;98504.72;;;1.85;88.26
43147;BME280;28752;48.266;7.402;2022-12-10T09:13:23;98510.22;;;1.93;87.92
43147;BME280;28752;48.266;7.402;2022-12-10T09:15:52;98521.03;;;2.00;87.71
43147;BME280;28752;48.266;7.402;2022-12-10T09:18:18;98522.81;;;2.00;87.80
43147;BME280;28752;48.266;7.402;2022-12-10T09:20:44;98519.88;;;2.04;86.67
43147;BME280;28752;48.266;7.402;2022-12-10T09:23:09;98527.72;;;2.16;87.00
43147;BME280;28752;48.266;7.402;2022-12-10T09:25:34;98530.25;;;2.17;86.44
43147;BME280;28752;48.266;7.402;2022-12-10T09:28:00;98533.56;;;2.19;87.00
43147;BME280;28752;48.266;7.402;2022-12-10T09:30:25;98533.06;;;2.14;87.28
43147;BME280;28752;48.266;7.402;2022-12-10T09:32:51;98529.28;;;2.18;87.77
43147;BME280;28752;48.266;7.402;2022-12-10T09:35:16;98543.56;;;2.25;87.48
43147;BME280;28752;48.266;7.402;2022-12-10T09:37:42;98532.06;;;2.39;86.77
43147;BME280;28752;48.266;7.402;2022-12-10T09:40:20;98541.47;;;2.42;86.63
43147;BME280;28752;48.266;7.402;2022-12-10T09:43:00;98528.88;;;2.36;86.06
43147;BME280;28752;48.266;7.402;2022-12-10T09:45:38;98545.00;;;2.41;86.88
43147;BME280;28752;48.266;7.402;2022-12-10T09:48:15;98548.09;;;2.46;86.94
43147;BME280;28752;48.266;7.402;2022-12-10T09:50:55;98556.69;;;2.48;86.06
43147;BME280;28752;48.266;7.402;2022-12-10T09:53:26;98552.84;;;2.41;85.86
43147;BME280;28752;48.266;7.402;2022-12-10T09:55:53;98554.28;;;2.45;85.74
43147;BME280;28752;48.266;7.402;2022-12-10T09:58:24;98545.47;;;2.35;85.81
43147;BME280;28752;48.266;7.402;2022-12-10T10:01:02;98550.47;;;2.38;85.17
43147;BME280;28752;48.266;7.402;2022-12-10T10:03:31;98548.31;;;2.31;84.92
43147;BME280;28752;48.266;7.402;2022-12-10T10:05:57;98549.88;;;2.34;85.19
43147;BME280;28752;48.266;7.402;2022-12-10T10:08:32;98549.03;;;2.34;85.50
43147;BME280;28752;48.266;7.402;2022-12-10T10:10:59;98535.69;;;2.14;85.15
43147;BME280;28752;48.266;7.402;2022-12-10T10:13:56;98542.84;;;2.23;85.05
43147;BME280;28752;48.266;7.402;2022-12-10T10:16:25;98555.44;;;2.29;84.74
43147;BME280;28752;48.266;7.402;2022-12-10T10:19:00;98547.19;;;2.11;85.30
43147;BME280;28752;48.266;7.402;2022-12-10T10:21:29;98535.66;;;2.03;85.75
43147;BME280;28752;48.266;7.402;2022-12-10T10:23:56;98548.13;;;2.10;85.50
43147;BME280;28752;48.266;7.402;2022-12-10T10:26:26;98531.66;;;2.10;85.31
43147;BME280;28752;48.266;7.402;2022-12-10T10:29:12;98551.22;;;2.16;86.23
43147;BME280;28752;48.266;7.402;2022-12-10T10:31:40;98551.47;;;2.12;86.86
43147;BME280;28752;48.266;7.402;2022-12-10T10:34:20;98559.06;;;2.16;86.11
43147;BME280;28752;48.266;7.402;2022-12-10T10:36:46;98547.66;;;2.05;86.98
43147;BME280;28752;48.266;7.402;2022-12-10T10:41:47;98554.63;;;2.05;86.65
43147;BME280;28752;48.266;7.402;2022-12-10T10:44:22;98555.84;;;2.01;87.10
43147;BME280;28752;48.266;7.402;2022-12-10T10:46:50;98553.38;;;2.10;87.13
43147;BME280;28752;48.266;7.402;2022-12-10T10:49:28;98545.16;;;2.04;86.90
43147;BME280;28752;48.266;7.402;2022-12-10T10:51:59;98549.34;;;2.18;86.66
43147;BME280;28752;48.266;7.402;2022-12-10T10:57:50;98523.53;;;2.02;85.95
43147;BME280;28752;48.266;7.402;2022-12-10T10:59:54;98542.09;;;2.10;86.24
43147;BME280;28752;48.266;7.402;2022-12-10T11:02:20;98557.03;;;2.08;85.62
43147;BME280;28752;48.266;7.402;2022-12-10T11:04:53;98561.59;;;2.17;85.33
43147;BME280;28752;48.266;7.402;2022-12-10T11:07:33;98556.38;;;2.17;85.74
43147;BME280;28752;48.266;7.402;2022-12-10T11:09:59;98565.28;;;2.26;84.88
43147;BME280;28752;48.266;7.402;2022-12-10T11:12:33;98561.38;;;2.20;85.56
43147;BME280;28752;48.266;7.402;2022-12-10T11:14:59;98563.00;;;2.21;86.05
43147;BME280;28752;48.266;7.402;2022-12-10T11:17:26;98565.50;;;2.23;86.79
43147;BME280;28752;48.266;7.402;2022-12-10T11:22:30;98563.75;;;2.35;85.24
43147;BME280;28752;48.266;7.402;2022-12-10T11:24:58;98569.94;;;2.34;85.43
43147;BME280;28752;48.266;7.402;2022-12-10T11:27:45;98568.16;;;2.34;85.64
43147;BME280;28752;48.266;7.402;2022-12-10T11:30:18;98570.66;;;2.36;86.05
43147;BME280;28752;48.266;7.402;2022-12-10T11:35:49;98569.50;;;2.16;86.90
43147;BME280;28752;48.266;7.402;2022-12-10T11:38:28;98579.97;;;2.16;86.77
43147;BME280;28752;48.266;7.402;2022-12-10T11:40:59;98571.94;;;2.19;87.20
43147;BME280;28752;48.266;7.402;2022-12-10T11:48:59;98586.84;;;2.17;86.68
43147;BME280;28752;48.266;7.402;2022-12-10T11:51:37;98572.22;;;2.03;87.48
43147;BME280;28752;48.266;7.402;2022-12-10T11:54:22;98588.41;;;2.19;87.35
43147;BME280;28752;48.266;7.402;2022-12-10T11:59:38;98585.53;;;2.11;87.14
43147;BME280;28752;48.266;7.402;2022-12-10T12:10:44;98601.38;;;2.21;87.00
43147;BME280;28752;48.266;7.402;2022-12-10T12:13:17;98605.44;;;2.01;87.38
43147;BME280;28752;48.266;7.402;2022-12-10T12:15:49;98607.19;;;2.00;88.04
43147;BME280;28752;48.266;7.402;2022-12-10T12:18:22;98610.47;;;1.91;88.88
43147;BME280;28752;48.266;7.402;2022-12-10T12:20:55;98610.59;;;1.89;89.02
43147;BME280;28752;48.266;7.402;2022-12-10T12:23:49;98612.19;;;1.79;90.88
43147;BME280;28752;48.266;7.402;2022-12-10T12:26:23;98611.25;;;1.80;91.40
43147;BME280;28752;48.266;7.402;2022-12-10T12:28:55;98621.25;;;1.86;90.48
43147;BME280;28752;48.266;7.402;2022-12-10T12:31:34;98623.28;;;1.83;90.51
43147;BME280;28752;48.266;7.402;2022-12-10T12:36:41;98620.78;;;1.81;90.94
43147;BME280;28752;48.266;7.402;2022-12-10T12:39:32;98629.09;;;1.86;91.77
43147;BME280;28752;48.266;7.402;2022-12-10T12:44:56;98632.63;;;1.85;92.06
43147;BME280;28752;48.266;7.402;2022-12-10T12:47:55;98631.78;;;1.98;91.62
43147;BME280;28752;48.266;7.402;2022-12-10T12:50:24;98640.88;;;1.92;91.87
43147;BME280;28752;48.266;7.402;2022-12-10T12:52:57;98639.72;;;1.96;90.24
43147;BME280;28752;48.266;7.402;2022-12-10T12:55:43;98646.75;;;1.83;91.41
43147;BME280;28752;48.266;7.402;2022-12-10T12:58:27;98651.47;;;1.77;90.96
43147;BME280;28752;48.266;7.402;2022-12-10T13:01:00;98654.41;;;1.73;92.02
43147;BME280;28752;48.266;7.402;2022-12-10T13:03:36;98652.53;;;1.75;91.04
43147;BME280;28752;48.266;7.402;2022-12-10T13:06:23;98652.66;;;1.60;92.15
43147;BME280;28752;48.266;7.402;2022-12-10T13:11:40;98657.59;;;1.52;91.19
43147;BME280;28752;48.266;7.402;2022-12-10T13:22:09;98674.78;;;1.68;93.59
43147;BME280;28752;48.266;7.402;2022-12-10T13:32:15;98666.56;;;1.61;95.41
43147;BME280;28752;48.266;7.402;2022-12-10T13:34:41;98671.94;;;1.71;95.47
43147;BME280;28752;48.266;7.402;2022-12-10T13:42:35;98686.16;;;1.67;95.75
43147;BME280;28752;48.266;7.402;2022-12-10T13:50:35;98696.91;;;1.62;96.42
43147;BME280;28752;48.266;7.402;2022-12-10T13:59:19;98708.16;;;1.75;96.21
43147;BME280;28752;48.266;7.402;2022-12-10T14:07:34;98716.81;;;1.76;96.42
43147;BME280;28752;48.266;7.402;2022-12-10T14:10:00;98718.59;;;1.75;96.12
43147;BME280;28752;48.266;7.402;2022-12-10T14:12:32;98733.00;;;1.81;96.14
43147;BME280;28752;48.266;7.402;2022-12-10T14:15:03;98725.28;;;1.80;96.18
43147;BME280;28752;48.266;7.402;2022-12-10T14:17:35;98724.66;;;1.76;96.38
43147;BME280;28752;48.266;7.402;2022-12-10T14:20:04;98734.38;;;1.74;96.28
43147;BME280;28752;48.266;7.402;2022-12-10T14:22:34;98738.34;;;1.67;95.37
43147;BME280;28752;48.266;7.402;2022-12-10T14:25:05;98740.22;;;1.77;95.00
43147;BME280;28752;48.266;7.402;2022-12-10T14:27:32;98738.25;;;1.68;95.50
43147;BME280;28752;48.266;7.402;2022-12-10T14:30:16;98751.50;;;1.65;96.83
43147;BME280;28752;48.266;7.402;2022-12-10T14:32:42;98745.47;;;1.65;96.93
43147;BME280;28752;48.266;7.402;2022-12-10T14:35:13;98737.75;;;1.63;96.85
43147;BME280;28752;48.266;7.402;2022-12-10T14:37:44;98750.47;;;1.68;97.66
43147;BME280;28752;48.266;7.402;2022-12-10T14:40:23;98750.25;;;1.71;97.74
43147;BME280;28752;48.266;7.402;2022-12-10T14:42:52;98771.78;;;1.62;98.27
43147;BME280;28752;48.266;7.402;2022-12-10T14:45:20;98753.78;;;1.70;97.84
43147;BME280;28752;48.266;7.402;2022-12-10T14:47:47;98765.69;;;1.74;97.76